Time;durP1;ratioP1;P1;durP2;ratioP2;P2;SDS_P1;SDS_P2;PMS_P1;PMS_P2;Temp;Humidity;BMP_temperature;BMP_pressure;BME280_temperature;BME280_humidity;BME280_pressure;Samples;Min_cycle;Max_cycle;Signal;HPM_P1;HPM_P2
2023/03/08 00:00:26;;;;;;;7.05;4.10;;;;;;;-7.20;81.14;99226.31;10615790;27;20044;-80
2023/03/08 00:05:29;;;;;;;6.30;4.28;;;;;;;-7.24;81.47;99217.09;10601129;28;20035;-80
2023/03/08 00:10:31;;;;;;;7.28;4.30;;;;;;;-7.28;81.38;99212.38;10605905;28;20428;-82
2023/03/08 00:15:36;;;;;;;6.20;4.75;;;;;;;-7.33;81.74;99212.94;10562655;28;20039;-80
2023/03/08 00:20:38;;;;;;;5.55;4.25;;;;;;;-7.33;81.52;99204.94;10603255;28;20044;-80
2023/03/08 00:25:40;;;;;;;7.18;3.85;;;;;;;-7.37;81.45;99190.41;10583034;28;20043;-77
2023/03/08 00:30:42;;;;;;;7.05;4.28;;;;;;;-7.44;81.40;99184.25;10591645;28;20061;-79
2023/03/08 00:36:06;;;;;;;2.75;1.80;;;;;;;-7.52;82.22;99182.56;10594158;28;20051;-78
2023/03/08 00:41:08;;;;;;;8.77;4.03;;;;;;;-7.52;81.81;99163.09;10580639;28;20489;-80
2023/03/08 00:46:11;;;;;;;7.10;5.10;;;;;;;-7.58;82.52;99158.59;10607314;28;20523;-78
2023/03/08 00:51:15;;;;;;;5.25;3.47;;;;;;;-7.62;82.23;99152.84;10609595;28;20043;-79
2023/03/08 00:56:17;;;;;;;5.10;2.80;;;;;;;-7.60;82.47;99146.28;10600462;28;20035;-79
2023/03/08 01:01:20;;;;;;;5.25;3.55;;;;;;;-7.58;82.57;99131.94;10554348;28;20424;-79
2023/03/08 01:06:24;;;;;;;7.57;4.22;;;;;;;-7.54;82.85;99110.03;10569882;28;20051;-80
2023/03/08 01:11:26;;;;;;;4.68;3.40;;;;;;;-7.49;82.45;99098.75;10548529;28;20058;-80
2023/03/08 01:16:31;;;;;;;4.78;3.35;;;;;;;-7.47;82.00;99083.38;10583030;28;20389;-78
2023/03/08 01:21:34;;;;;;;6.05;3.90;;;;;;;-7.46;nan;99093.03;10600093;28;20488;-79
2023/03/08 01:26:36;;;;;;;5.22;3.92;;;;;;;-7.42;82.64;99072.97;10604070;28;20048;-78
2023/03/08 01:31:38;;;;;;;5.68;4.25;;;;;;;-7.43;81.92;99082.81;10590291;28;20036;-79
2023/03/08 01:36:41;;;;;;;4.22;3.47;;;;;;;-7.43;82.87;99066.00;10580282;28;20050;-80
2023/03/08 01:41:43;;;;;;;5.88;2.92;;;;;;;-7.42;81.72;99062.31;10574759;28;20039;-79
2023/03/08 01:46:45;;;;;;;4.90;3.95;;;;;;;-7.42;82.11;99049.81;10599992;28;20389;-79
2023/03/08 01:52:05;;;;;;;6.03;3.65;;;;;;;-7.47;81.81;99030.94;10570379;28;20515;-79
2023/03/08 01:57:25;;;;;;;5.38;4.20;;;;;;;-7.47;82.05;99019.47;10584675;28;20108;-78
2023/03/08 02:02:31;;;;;;;5.00;3.03;;;;;;;-7.46;82.24;98986.47;10584462;28;20050;-79
2023/03/08 02:07:34;;;;;;;5.03;3.35;;;;;;;-7.47;82.13;98979.50;10564407;28;20051;-78
2023/03/08 02:12:38;;;;;;;4.45;3.42;;;;;;;-7.45;81.92;98985.47;10588976;28;20047;-79
2023/03/08 02:17:42;;;;;;;4.85;3.60;;;;;;;-7.43;82.03;98994.06;10564757;28;20444;-79
2023/03/08 02:22:45;;;;;;;10.35;3.25;;;;;;;-7.43;81.98;98989.56;10593750;28;20035;-79
2023/03/08 02:27:48;;;;;;;3.45;2.67;;;;;;;-7.46;81.64;98951.84;10609762;28;20047;-80
2023/03/08 02:32:50;;;;;;;5.50;3.22;;;;;;;-7.42;81.38;98945.91;10579406;28;20032;-79
2023/03/08 02:37:53;;;;;;;5.20;3.20;;;;;;;-7.38;81.73;98919.66;10615191;28;20412;-79
2023/03/08 02:42:55;;;;;;;4.32;2.95;;;;;;;-7.35;81.54;98911.25;10609681;28;20527;-79
2023/03/08 02:47:57;;;;;;;4.55;3.00;;;;;;;-7.30;81.05;98895.44;10610888;28;20054;-79
2023/03/08 02:52:59;;;;;;;5.30;3.42;;;;;;;-7.23;81.30;98900.78;10611551;28;20043;-80
2023/03/08 02:58:06;;;;;;;3.95;2.30;;;;;;;-7.21;80.28;98877.41;10610916;28;20039;-80
2023/03/08 03:03:08;;;;;;;4.10;2.33;;;;;;;-7.15;80.75;98869.38;10593643;28;20039;-78
2023/03/08 03:08:11;;;;;;;4.20;2.15;;;;;;;-7.11;79.89;98859.97;10590383;28;20047;-80
2023/03/08 03:13:15;;;;;;;3.28;1.77;;;;;;;-7.11;79.50;98848.47;10601039;28;20051;-79
2023/03/08 03:18:17;;;;;;;4.50;2.55;;;;;;;-7.08;79.34;98829.38;10632014;28;20050;-78
2023/03/08 03:23:19;;;;;;;3.15;2.22;;;;;;;-7.05;79.89;98813.78;10575310;28;20040;-80
2023/03/08 03:28:27;;;;;;;3.47;1.90;;;;;;;-7.06;79.16;98806.00;10591907;28;20511;-80
2023/03/08 03:33:29;;;;;;;3.00;2.20;;;;;;;-7.05;79.10;98792.47;10558134;28;20035;-79
2023/03/08 03:38:32;;;;;;;2.70;1.90;;;;;;;-7.05;78.89;98787.13;10577329;28;20050;-79
2023/03/08 03:43:36;;;;;;;2.83;2.28;;;;;;;-7.04;79.13;98772.78;10575736;28;20043;-78
2023/03/08 03:48:42;;;;;;;3.08;2.10;;;;;;;-7.01;79.03;98783.00;10576628;28;20040;-79
2023/03/08 03:53:46;;;;;;;1.63;1.33;;;;;;;-7.01;78.74;98751.00;10591730;28;20496;-79
2023/03/08 03:58:50;;;;;;;2.03;1.48;;;;;;;-7.00;78.80;98725.16;10594694;28;20040;-80
2023/03/08 04:03:56;;;;;;;1.38;1.17;;;;;;;-6.99;78.78;98711.63;10593026;28;20062;-79
2023/03/08 04:09:07;;;;;;;2.25;2.05;;;;;;;-6.95;78.10;98697.84;10587098;28;20050;-79
2023/03/08 04:14:13;;;;;;;2.25;1.85;;;;;;;-6.94;78.44;98686.16;10575937;28;20039;-79
2023/03/08 04:19:16;;;;;;;2.00;1.42;;;;;;;-6.92;78.43;98676.94;10574735;28;20042;-79
2023/03/08 04:24:26;;;;;;;2.53;1.40;;;;;;;-6.88;78.47;98670.13;10589049;28;20043;-80
2023/03/08 04:29:33;;;;;;;1.90;1.40;;;;;;;-6.78;77.72;98649.13;10581888;28;20409;-78
2023/03/08 04:34:36;;;;;;;2.15;1.27;;;;;;;-6.72;78.16;98623.44;10590323;28;20027;-79
2023/03/08 04:39:41;;;;;;;2.17;1.20;;;;;;;-6.67;77.31;98623.59;10589645;28;20058;-79
2023/03/08 04:44:45;;;;;;;1.80;1.10;;;;;;;-6.61;76.83;98612.03;10588937;28;20036;-78
2023/03/08 04:49:53;;;;;;;2.10;1.63;;;;;;;-6.55;76.76;98578.34;10606938;28;20047;-79
2023/03/08 04:54:56;;;;;;;1.70;1.50;;;;;;;-6.49;76.68;98575.59;10589412;28;20039;-80
2023/03/08 05:00:04;;;;;;;1.73;1.35;;;;;;;-6.38;76.11;98553.53;10589125;28;20038;-79
2023/03/08 05:05:11;;;;;;;2.17;1.52;;;;;;;-6.27;75.41;98543.13;10590957;28;20047;-80
2023/03/08 05:10:17;;;;;;;1.40;1.30;;;;;;;-6.23;75.05;98517.63;10587964;28;20054;-80
2023/03/08 05:15:22;;;;;;;2.15;1.20;;;;;;;-6.20;75.14;98538.53;10552354;28;20484;-79
2023/03/08 05:20:24;;;;;;;1.90;1.55;;;;;;;-6.20;74.42;98485.97;10603169;28;20400;-79
2023/03/08 05:25:29;;;;;;;2.45;1.60;;;;;;;-6.21;74.76;98495.00;10586093;28;20062;-80
2023/03/08 05:30:35;;;;;;;1.40;1.10;;;;;;;-6.23;75.09;98461.59;10589481;28;20054;-80
2023/03/08 05:35:38;;;;;;;2.35;1.70;;;;;;;-6.24;75.29;98457.28;10589510;28;20039;-79
2023/03/08 05:40:41;;;;;;;1.65;1.17;;;;;;;-6.24;75.13;98452.78;10587076;28;20032;-79
2023/03/08 05:45:54;;;;;;;1.42;0.80;;;;;;;-6.21;76.27;98422.13;10586583;28;20031;-79
2023/03/08 05:50:56;;;;;;;0.98;0.88;;;;;;;-6.30;78.51;98391.47;10560894;28;20130;-80
2023/03/08 05:56:11;;;;;;;3.20;1.50;;;;;;;-6.47;80.52;98361.94;10591873;28;20416;-80
2023/03/08 06:01:22;;;;;;;0.93;0.90;;;;;;;-6.60;82.52;98352.28;10578464;28;20416;-79
2023/03/08 06:06:26;;;;;;;3.00;1.63;;;;;;;-6.65;83.04;98354.81;10589236;27;20060;-79
2023/03/08 06:11:33;;;;;;;2.47;1.55;;;;;;;-6.73;83.77;98352.47;10618122;27;20051;-80
2023/03/08 06:16:37;;;;;;;3.20;1.70;;;;;;;-6.78;85.02;98338.97;10567000;28;20039;-79
2023/03/08 06:21:41;;;;;;;1.77;1.58;;;;;;;-6.85;86.03;98314.28;10614130;28;20048;-79
2023/03/08 06:26:43;;;;;;;1.88;1.08;;;;;;;-6.88;87.21;98304.06;10561417;28;20078;-80
2023/03/08 06:31:47;;;;;;;1.85;1.17;;;;;;;-6.93;88.42;98306.59;10599923;28;20035;-80
2023/03/08 06:36:51;;;;;;;0.63;0.63;;;;;;;-6.92;89.08;98297.56;10567082;28;20488;-80
2023/03/08 06:41:57;;;;;;;2.50;1.52;;;;;;;-6.89;90.25;98289.13;10598673;28;20045;-80
2023/03/08 06:47:00;;;;;;;2.53;1.90;;;;;;;-6.88;91.03;98269.41;10582053;28;20031;-79
2023/03/08 06:52:02;;;;;;;1.60;1.30;;;;;;;-6.81;90.97;98254.94;10597476;28;20042;-79
2023/03/08 06:57:05;;;;;;;2.78;1.23;;;;;;;-6.79;91.50;98231.53;10584444;28;20035;-79
2023/03/08 07:02:08;;;;;;;3.13;1.70;;;;;;;-6.79;91.70;98212.84;10590447;28;20080;-79
2023/03/08 07:07:10;;;;;;;2.15;1.52;;;;;;;-6.73;91.92;98208.47;10600896;28;20054;-79
2023/03/08 07:12:15;;;;;;;3.67;1.73;;;;;;;-6.71;91.80;98215.19;10598240;28;20069;-79
2023/03/08 07:17:18;;;;;;;3.35;1.30;;;;;;;-6.59;92.15;98201.09;10540497;28;20056;-80
2023/03/08 07:22:20;;;;;;;3.25;1.60;;;;;;;-6.51;92.65;98188.19;10618653;28;20522;-79
2023/03/08 07:27:23;;;;;;;2.45;1.60;;;;;;;-6.40;92.40;98168.72;10560276;28;20524;-79
2023/03/08 07:32:27;;;;;;;1.65;1.45;;;;;;;-6.27;93.00;98156.97;10588785;28;20031;-79
2023/03/08 07:37:29;;;;;;;1.40;1.30;;;;;;;-6.16;92.91;98166.84;10606884;28;20042;-80
2023/03/08 07:42:32;;;;;;;2.10;1.50;;;;;;;-6.10;92.61;98143.72;10612130;28;20043;-80
2023/03/08 07:47:45;;;;;;;3.03;2.33;;;;;;;-6.09;92.22;98129.34;10558031;28;20044;-80
2023/03/08 07:52:48;;;;;;;1.83;1.55;;;;;;;-6.06;92.78;98146.75;10586815;28;20035;-79
2023/03/08 07:57:51;;;;;;;3.83;1.70;;;;;;;-6.08;92.65;98109.59;10591231;28;20035;-79
2023/03/08 08:02:53;;;;;;;3.00;1.40;;;;;;;-5.99;92.22;98097.53;10592666;28;20047;-79
2023/03/08 08:07:55;;;;;;;1.27;1.17;;;;;;;-5.95;92.72;98071.97;10608751;28;20044;-80
2023/03/08 08:12:57;;;;;;;3.65;1.40;;;;;;;-5.83;92.66;98070.03;10576841;28;20062;-80
2023/03/08 08:18:00;;;;;;;2.35;1.48;;;;;;;-5.72;92.57;98071.03;10578519;28;20031;-80
2023/03/08 08:23:05;;;;;;;2.03;1.83;;;;;;;-5.66;92.49;98056.72;10610900;28;20051;-79
2023/03/08 08:28:07;;;;;;;3.60;1.77;;;;;;;-5.49;92.67;98051.41;10591741;28;20408;-79
2023/03/08 08:33:10;;;;;;;6.43;2.03;;;;;;;-5.42;92.74;98049.38;10608504;28;20035;-80
2023/03/08 08:38:12;;;;;;;3.78;1.95;;;;;;;-5.37;92.33;98051.34;10568133;28;20039;-80
2023/03/08 08:43:14;;;;;;;2.17;1.98;;;;;;;-5.33;91.91;98045.28;10602020;28;20692;-79
2023/03/08 08:48:17;;;;;;;3.20;2.20;;;;;;;-5.28;92.59;98031.97;10588059;28;20496;-79
2023/03/08 08:53:19;;;;;;;2.35;1.55;;;;;;;-5.17;92.68;98024.94;10605803;28;20043;-79
2023/03/08 08:58:22;;;;;;;3.55;2.67;;;;;;;-5.12;92.04;98018.84;10605442;28;20036;-80
2023/03/08 09:03:24;;;;;;;3.15;2.38;;;;;;;-5.00;91.79;98007.03;10587639;28;20044;-80
2023/03/08 09:08:26;;;;;;;4.25;2.53;;;;;;;-4.93;91.92;97998.81;10608793;28;20043;-79
2023/03/08 09:13:29;;;;;;;4.45;2.55;;;;;;;-4.88;91.61;97990.84;10599368;28;20621;-80
2023/03/08 09:18:31;;;;;;;3.03;2.28;;;;;;;-4.79;91.62;97983.22;10562886;28;20043;-79
2023/03/08 09:23:33;;;;;;;4.07;2.50;;;;;;;-4.72;91.95;97986.53;10580099;28;20047;-79
2023/03/08 09:28:35;;;;;;;4.47;2.60;;;;;;;-4.63;91.48;97971.69;10602629;28;20077;-80
2023/03/08 09:33:39;;;;;;;4.40;3.00;;;;;;;-4.51;91.84;97967.03;10606333;28;20042;-80
2023/03/08 09:38:41;;;;;;;4.65;3.22;;;;;;;-4.43;91.59;97957.72;10599628;28;20032;-78
2023/03/08 09:44:05;;;;;;;4.82;2.90;;;;;;;-4.37;91.60;97964.75;10588197;28;20044;-82
2023/03/08 09:49:13;;;;;;;4.20;3.10;;;;;;;-4.26;91.64;97947.75;10562156;28;20412;-79
2023/03/08 09:54:17;;;;;;;;;;;;;;;-4.16;92.04;97942.50;10540480;28;20048;-78
2023/03/08 09:59:32;;;;;;;5.93;3.58;;;;;;;-4.05;91.90;97941.53;10561857;28;19938;-79
2023/03/08 10:04:42;;;;;;;5.07;2.88;;;;;;;-3.87;92.20;97944.91;10614764;28;20053;-82
2023/03/08 10:10:03;;;;;;;4.43;3.25;;;;;;;-3.65;92.22;97918.84;10613695;28;20069;-83
2023/03/08 10:15:25;;;;;;;5.43;4.25;;;;;;;-3.26;92.10;97907.88;10591892;28;20044;-85
2023/03/08 10:20:30;;;;;;;6.78;3.75;;;;;;;-2.94;92.18;97902.44;10586959;28;20049;-81
2023/03/08 10:25:33;;;;;;;5.43;3.30;;;;;;;-2.68;91.65;97917.56;10604552;28;20036;-81
2023/03/08 10:30:40;;;;;;;6.03;3.95;;;;;;;-2.43;91.93;97908.78;10574275;28;20054;-79
2023/03/08 10:36:00;;;;;;;6.15;4.25;;;;;;;-2.28;91.28;97911.53;10600721;28;20039;-85
2023/03/08 10:41:13;;;;;;;5.35;4.47;;;;;;;-2.18;90.54;97914.25;10576755;28;20031;-80
2023/03/08 10:46:18;;;;;;;6.65;4.53;;;;;;;-2.19;89.43;97915.31;10609107;28;20039;-78
2023/03/08 10:51:26;;;;;;;7.30;4.15;;;;;;;-2.16;89.64;97901.34;10604893;28;20050;-78
2023/03/08 10:56:45;;;;;;;6.40;4.55;;;;;;;-2.08;88.80;97893.81;10584321;28;20032;-78
2023/03/08 11:01:49;;;;;;;5.45;3.90;;;;;;;-1.96;88.51;97902.44;10622326;28;20036;-80
2023/03/08 11:06:51;;;;;;;5.43;4.05;;;;;;;-1.99;88.64;97892.25;10604126;28;20039;-81
2023/03/08 11:11:58;;;;;;;7.47;4.53;;;;;;;-2.01;88.64;97887.13;10609737;27;20039;-78
2023/03/08 11:17:38;;;;;;;6.28;3.80;;;;;;;-2.04;89.13;97886.88;10621533;27;20037;-79
2023/03/08 11:22:46;;;;;;;6.90;4.63;;;;;;;-2.00;89.40;97898.69;10605671;28;20443;-80
2023/03/08 11:28:02;;;;;;;6.68;5.05;;;;;;;-1.88;89.67;97894.69;10620367;27;20042;-79
2023/03/08 11:33:24;;;;;;;7.15;4.07;;;;;;;-1.92;89.81;97893.59;10624321;27;20038;-82
2023/03/08 11:38:31;;;;;;;5.43;4.10;;;;;;;-1.86;90.21;97878.28;10604049;28;20046;-79
2023/03/08 11:44:03;;;;;;;5.57;4.30;;;;;;;-1.90;90.49;97879.91;10621681;28;20035;-79
2023/03/08 11:49:39;;;;;;;6.70;4.30;;;;;;;-1.93;90.37;97875.03;10567391;28;20058;-78
2023/03/08 11:55:01;;;;;;;7.30;5.15;;;;;;;-1.92;90.95;97872.09;10603560;28;20036;-79
2023/03/08 12:00:22;;;;;;;7.82;4.72;;;;;;;-1.89;91.47;97866.19;10621930;28;20562;-78
2023/03/08 12:05:30;;;;;;;6.55;4.78;;;;;;;-1.90;92.00;97863.78;10606378;28;20042;-80
2023/03/08 12:10:48;;;;;;;7.55;4.97;;;;;;;-1.89;92.35;97857.31;10589520;28;20051;-79
2023/03/08 12:15:56;;;;;;;5.82;3.65;;;;;;;-1.91;92.61;97846.00;10597547;27;20042;-78
2023/03/08 12:21:17;;;;;;;5.20;3.90;;;;;;;-1.83;92.85;97864.31;10624468;27;20040;-78
2023/03/08 12:26:27;;;;;;;5.93;4.35;;;;;;;-1.79;93.26;97849.25;10607528;28;20474;-79
2023/03/08 12:31:37;;;;;;;6.53;3.05;;;;;;;-1.71;93.89;97850.59;10587789;28;20066;-79
2023/03/08 12:36:41;;;;;;;5.53;3.20;;;;;;;-1.62;94.00;97838.22;10595000;28;20412;-79
2023/03/08 12:41:57;;;;;;;8.30;3.95;;;;;;;-1.67;93.76;97839.03;10609662;28;20046;-79
2023/03/08 12:47:12;;;;;;;5.68;4.07;;;;;;;-1.58;93.76;97840.09;10575883;28;20042;-79
2023/03/08 12:52:18;;;;;;;6.70;4.63;;;;;;;-1.46;93.84;97841.69;10613286;28;20332;-78
2023/03/08 12:57:23;;;;;;;7.55;4.20;;;;;;;-1.32;93.92;97842.75;10612426;28;20421;-79
2023/03/08 13:02:33;;;;;;;5.95;3.88;;;;;;;-1.20;93.75;97837.06;10598134;28;20054;-79
2023/03/08 13:07:39;;;;;;;6.32;4.18;;;;;;;-1.08;93.25;97832.97;10602688;28;20141;-79
2023/03/08 13:13:08;;;;;;;8.98;4.55;;;;;;;-1.01;92.88;97828.13;10586601;28;20043;-78
2023/03/08 13:18:15;;;;;;;6.72;4.07;;;;;;;-0.95;92.58;97836.97;10615787;27;20035;-78
2023/03/08 13:23:26;;;;;;;6.87;3.80;;;;;;;-0.89;91.35;97817.03;10602195;28;20036;-78
2023/03/08 13:28:33;;;;;;;6.40;3.20;;;;;;;-0.88;90.96;97823.22;10587705;28;20492;-79
2023/03/08 13:33:49;;;;;;;6.80;3.17;;;;;;;-0.91;89.54;97828.06;10582771;28;20047;-78
2023/03/08 13:39:01;;;;;;;4.25;2.90;;;;;;;-0.91;89.33;97824.56;10576128;28;20043;-79
2023/03/08 13:44:05;;;;;;;4.65;1.95;;;;;;;-0.91;89.12;97822.69;10611093;28;20031;-81
2023/03/08 13:49:16;;;;;;;5.75;2.63;;;;;;;-0.93;87.77;97829.44;10586064;28;20039;-81
2023/03/08 13:54:29;;;;;;;4.60;2.85;;;;;;;-0.89;86.98;97818.91;10595918;28;20041;-81
2023/03/08 13:59:33;;;;;;;5.68;2.47;;;;;;;-0.89;85.56;97813.53;10599462;28;20044;-82
2023/03/08 14:04:41;;;;;;;4.43;2.58;;;;;;;-0.86;83.32;97811.13;10601461;28;20057;-85
2023/03/08 14:09:43;;;;;;;6.88;2.88;;;;;;;-0.82;82.67;97814.84;10542746;28;20184;-81
2023/03/08 14:14:49;;;;;;;5.32;1.95;;;;;;;-0.82;81.29;97808.66;10577839;28;20046;-81
2023/03/08 14:19:59;;;;;;;5.68;2.70;;;;;;;-0.75;81.92;97814.53;10627375;28;20040;-85
2023/03/08 14:25:03;;;;;;;2.97;1.55;;;;;;;-0.74;81.50;97821.53;10575500;27;20046;-81
2023/03/08 14:30:16;;;;;;;4.40;2.58;;;;;;;-0.76;80.87;97823.69;10588768;28;20070;-79
2023/03/08 14:35:23;;;;;;;5.60;2.38;;;;;;;-0.77;80.63;97811.31;10600556;28;20051;-80
2023/03/08 14:40:29;;;;;;;4.28;2.30;;;;;;;-0.74;80.81;97811.56;10575399;28;21133;-83
2023/03/08 14:45:55;;;;;;;7.40;2.65;;;;;;;-0.70;81.02;97814.50;10555854;27;20050;-79
2023/03/08 14:51:21;;;;;;;5.68;2.60;;;;;;;-0.75;81.57;97814.53;10559123;28;20031;-81
2023/03/08 14:56:28;;;;;;;1.90;1.58;;;;;;;-0.80;81.61;97804.59;10591273;28;20035;-85
2023/03/08 15:01:36;;;;;;;4.13;2.30;;;;;;;-0.85;81.99;97798.47;10623152;27;20052;-81
2023/03/08 15:06:38;;;;;;;6.32;2.67;;;;;;;-0.80;81.67;97795.72;10568366;28;20051;-81
2023/03/08 15:11:42;;;;;;;3.92;2.28;;;;;;;-0.85;82.09;97796.56;10590653;28;20069;-80
2023/03/08 15:16:44;;;;;;;6.05;2.75;;;;;;;-0.81;82.67;97791.44;10602126;27;20035;-80
2023/03/08 15:21:47;;;;;;;3.70;2.28;;;;;;;-0.77;82.85;97793.28;10627735;27;20043;-81
2023/03/08 15:26:51;;;;;;;4.13;2.70;;;;;;;-0.85;82.03;97795.75;10608372;27;20035;-80
2023/03/08 15:31:58;;;;;;;5.97;2.70;;;;;;;-0.85;82.21;97793.06;10602941;27;20030;-88
2023/03/08 15:37:05;;;;;;;5.68;2.38;;;;;;;-0.91;82.43;97786.88;10594090;28;20047;-86
2023/03/08 15:42:12;;;;;;;4.90;2.72;;;;;;;-0.93;82.12;97783.66;10526292;28;20040;-83
2023/03/08 15:47:20;;;;;;;5.70;2.30;;;;;;;-0.92;82.51;97788.78;10573456;28;20043;-82
2023/03/08 15:52:22;;;;;;;4.32;1.98;;;;;;;-0.94;82.03;97790.94;10561296;28;20385;-80
2023/03/08 15:57:29;;;;;;;4.13;2.33;;;;;;;-1.00;81.88;97781.28;10562854;28;20519;-80
2023/03/08 16:02:35;;;;;;;3.30;1.85;;;;;;;-0.95;81.84;97783.94;10612350;28;20035;-84
2023/03/08 16:07:37;;;;;;;9.52;2.20;;;;;;;-0.98;82.75;97783.69;10574453;28;20058;-81
2023/03/08 16:12:40;;;;;;;3.00;1.85;;;;;;;-0.99;82.81;97777.53;10571158;28;20040;-84
2023/03/08 16:17:43;;;;;;;5.68;2.20;;;;;;;-1.08;82.86;97779.16;10595909;28;20032;-80
2023/03/08 16:22:45;;;;;;;4.05;1.50;;;;;;;-1.15;83.06;97767.91;10578539;28;20645;-86
2023/03/08 16:27:47;;;;;;;3.33;1.90;;;;;;;-1.16;82.74;97768.19;10536214;28;20048;-82
2023/03/08 16:32:51;;;;;;;2.92;1.73;;;;;;;-1.15;82.17;97764.41;10566856;28;20032;-80
2023/03/08 16:37:54;;;;;;;6.53;1.92;;;;;;;-1.19;82.58;97771.41;10605370;28;20524;-82
2023/03/08 16:42:57;;;;;;;3.85;2.10;;;;;;;-1.24;83.23;97769.53;10605120;28;20126;-82
2023/03/08 16:48:03;;;;;;;4.43;2.70;;;;;;;-1.28;83.62;97771.97;10585266;28;20047;-82
2023/03/08 16:53:06;;;;;;;7.88;3.47;;;;;;;-1.32;83.96;97768.22;10563966;27;20031;-84
2023/03/08 16:58:12;;;;;;;6.10;3.42;;;;;;;-1.35;84.76;97767.97;10577490;28;20050;-89
2023/03/08 17:03:14;;;;;;;6.25;3.17;;;;;;;-1.36;85.44;97763.69;10566163;28;20051;-85
2023/03/08 17:08:16;;;;;;;8.13;4.13;;;;;;;-1.37;86.30;97773.63;10562278;28;20043;-82
2023/03/08 17:13:18;;;;;;;7.38;4.00;;;;;;;-1.37;87.29;97770.94;10563924;28;20044;-83
2023/03/08 17:18:23;;;;;;;6.00;3.90;;;;;;;-1.43;88.15;97753.19;10569042;28;20043;-83
2023/03/08 17:23:27;;;;;;;6.85;4.45;;;;;;;-1.48;89.25;97763.16;10537634;28;20641;-83
2023/03/08 17:28:29;;;;;;;6.68;3.60;;;;;;;-1.54;89.73;97755.13;10562391;28;20048;-82
2023/03/08 17:33:35;;;;;;;7.28;4.38;;;;;;;-1.57;90.17;97750.28;10553680;28;20050;-81
2023/03/08 17:38:37;;;;;;;7.07;3.90;;;;;;;-1.56;90.06;97734.97;10565817;28;20058;-84
2023/03/08 17:43:39;;;;;;;6.10;3.60;;;;;;;-1.56;90.67;97735.78;10569466;28;20032;-84
2023/03/08 17:48:42;;;;;;;7.22;3.75;;;;;;;-1.56;91.01;97733.09;10596942;28;20046;-84
2023/03/08 17:53:45;;;;;;;6.65;3.70;;;;;;;-1.58;90.71;97731.72;10550680;28;20051;-86
2023/03/08 17:58:48;;;;;;;5.93;3.78;;;;;;;-1.58;91.10;97726.34;10593639;28;20040;-84
2023/03/08 18:03:50;;;;;;;6.53;4.07;;;;;;;-1.57;90.92;97725.28;10590405;28;20438;-81
2023/03/08 18:08:53;;;;;;;7.15;4.38;;;;;;;-1.58;91.28;97727.16;10593204;28;20044;-78
2023/03/08 18:13:55;;;;;;;7.03;5.10;;;;;;;-1.60;91.56;97713.19;10570802;28;20042;-81
2023/03/08 18:18:58;;;;;;;7.85;5.07;;;;;;;-1.59;91.87;97712.09;10573057;28;20040;-79
2023/03/08 18:24:00;;;;;;;8.98;5.15;;;;;;;-1.58;91.98;97694.09;10587961;28;20046;-85
2023/03/08 18:29:03;;;;;;;8.18;4.80;;;;;;;-1.59;91.98;97700.53;10568139;27;20056;-79
2023/03/08 18:34:06;;;;;;;5.75;4.18;;;;;;;-1.60;91.93;97701.63;10556388;28;20504;-80
2023/03/08 18:39:12;;;;;;;9.38;5.18;;;;;;;-1.64;91.92;97712.13;10603984;28;20081;-82
2023/03/08 18:44:14;;;;;;;9.10;4.82;;;;;;;-1.66;92.05;97698.16;10602951;28;20512;-79
2023/03/08 18:49:16;;;;;;;6.82;4.70;;;;;;;-1.68;92.54;97684.19;10554261;28;20056;-79
2023/03/08 18:54:21;;;;;;;8.90;4.68;;;;;;;-1.69;91.70;97695.22;10587607;28;20055;-79
2023/03/08 18:59:23;;;;;;;9.27;5.13;;;;;;;-1.70;91.80;97696.31;10606025;28;20044;-81
2023/03/08 19:04:26;;;;;;;7.63;5.65;;;;;;;-1.72;91.99;97695.78;10589684;28;20047;-80
2023/03/08 19:09:28;;;;;;;11.80;6.30;;;;;;;-1.74;91.52;97692.53;10538416;28;20474;-80
2023/03/08 19:14:30;;;;;;;9.32;5.20;;;;;;;-1.74;91.92;97689.84;10575505;28;20039;-80
2023/03/08 19:19:32;;;;;;;9.40;6.00;;;;;;;-1.71;91.66;97689.31;10584337;28;20039;-78
2023/03/08 19:24:35;;;;;;;8.48;6.63;;;;;;;-1.72;91.75;97687.72;10599630;28;20046;-80
2023/03/08 19:29:37;;;;;;;9.40;5.85;;;;;;;-1.77;91.28;97677.75;10583832;28;20043;-78
2023/03/08 19:34:41;;;;;;;9.60;5.78;;;;;;;-1.79;91.65;97679.91;10615913;28;20039;-79
2023/03/08 19:39:45;;;;;;;7.80;5.35;;;;;;;-1.78;91.84;97670.78;10608677;28;20040;-81
2023/03/08 19:44:49;;;;;;;9.82;6.38;;;;;;;-1.78;91.57;97665.41;10576403;28;20040;-81
2023/03/08 19:49:51;;;;;;;9.70;6.10;;;;;;;-1.74;91.56;97669.13;10573664;28;20117;-80
2023/03/08 19:54:54;;;;;;;10.07;6.45;;;;;;;-1.71;91.55;97659.75;10568223;28;20052;-80
2023/03/08 19:59:58;;;;;;;11.65;6.45;;;;;;;-1.71;91.80;97665.13;10575039;28;20043;-81
2023/03/08 20:05:00;;;;;;;11.65;7.90;;;;;;;-1.72;91.80;97668.91;10604613;28;20491;-79
2023/03/08 20:10:02;;;;;;;12.50;7.60;;;;;;;-1.77;91.92;97648.19;10591386;28;20047;-80
2023/03/08 20:15:05;;;;;;;12.60;8.73;;;;;;;-1.77;92.19;97650.88;10580806;28;20043;-78
2023/03/08 20:20:08;;;;;;;13.40;8.10;;;;;;;-1.78;92.09;97646.59;10600552;28;20488;-80
2023/03/08 20:25:11;;;;;;;15.10;9.07;;;;;;;-1.84;92.80;97647.69;10603262;28;20039;-80
2023/03/08 20:30:13;;;;;;;12.52;8.02;;;;;;;-1.85;92.76;97654.16;10549153;28;20063;-79
2023/03/08 20:35:16;;;;;;;11.98;7.97;;;;;;;-1.88;92.63;97652.00;10593682;27;20046;-78
2023/03/08 20:40:19;;;;;;;12.95;8.70;;;;;;;-1.87;92.34;97648.25;10602646;27;20054;-81
2023/03/08 20:45:22;;;;;;;11.73;6.97;;;;;;;-1.88;92.22;97652.00;10610103;28;20039;-81
2023/03/08 20:50:26;;;;;;;11.10;6.30;;;;;;;-1.87;92.52;97646.34;10565544;28;20047;-80
2023/03/08 20:55:32;;;;;;;8.77;5.68;;;;;;;-1.85;92.70;97636.13;10568170;27;20044;-79
2023/03/08 21:00:36;;;;;;;14.52;8.23;;;;;;;-1.80;92.42;97629.13;10575187;27;20053;-79
2023/03/08 21:05:38;;;;;;;6.55;4.93;;;;;;;-1.77;92.28;97631.25;10587887;27;20305;-77
2023/03/08 21:10:44;;;;;;;9.05;5.15;;;;;;;-1.77;92.20;97626.69;10610855;28;20051;-80
2023/03/08 21:15:47;;;;;;;8.20;5.13;;;;;;;-1.75;92.01;97624.53;10616241;27;20050;-79
2023/03/08 21:20:49;;;;;;;8.68;4.63;;;;;;;-1.79;91.84;97623.47;10591177;28;20043;-79
2023/03/08 21:25:51;;;;;;;8.40;4.57;;;;;;;-1.74;92.05;97619.94;10568041;28;20093;-78
2023/03/08 21:30:54;;;;;;;6.88;4.45;;;;;;;-1.66;91.74;97625.56;10581427;28;20523;-79
2023/03/08 21:36:00;;;;;;;7.75;4.50;;;;;;;-1.62;91.49;97620.44;10583224;28;20039;-79
2023/03/08 21:41:02;;;;;;;7.82;4.70;;;;;;;-1.58;91.97;97619.59;10612997;28;20492;-79
2023/03/08 21:46:05;;;;;;;5.68;3.78;;;;;;;-1.58;91.43;97622.31;10561434;28;20043;-80
2023/03/08 21:51:07;;;;;;;6.82;3.80;;;;;;;-1.59;91.72;97623.38;10612315;28;20055;-80
2023/03/08 21:56:10;;;;;;;7.95;4.43;;;;;;;-1.63;90.66;97616.16;10609331;28;20416;-78
2023/03/08 22:01:22;;;;;;;7.68;4.60;;;;;;;-1.59;91.05;97631.44;10559721;28;20126;-79
2023/03/08 22:06:29;;;;;;;9.57;4.38;;;;;;;-1.60;91.03;97634.41;10572086;28;20040;-78
2023/03/08 22:11:31;;;;;;;6.72;4.07;;;;;;;-1.60;90.96;97637.09;10590489;28;20054;-78
2023/03/08 22:16:36;;;;;;;6.53;4.60;;;;;;;-1.60;90.86;97629.03;10572826;28;20507;-79
2023/03/08 22:21:39;;;;;;;8.55;4.90;;;;;;;-1.59;90.72;97628.75;10591557;28;20050;-78
2023/03/08 22:26:41;;;;;;;8.07;5.25;;;;;;;-1.57;91.08;97629.28;10605458;28;20040;-78
2023/03/08 22:31:43;;;;;;;8.77;5.30;;;;;;;-1.59;91.03;97625.25;10591456;28;20074;-79
2023/03/08 22:36:46;;;;;;;7.07;5.20;;;;;;;-1.61;91.09;97633.59;10608877;27;20039;-77
2023/03/08 22:41:48;;;;;;;8.93;5.15;;;;;;;-1.58;90.93;97621.50;10597112;28;20040;-77
2023/03/08 22:46:50;;;;;;;9.70;5.68;;;;;;;-1.59;90.52;97631.44;10599290;28;20042;-78
2023/03/08 22:51:56;;;;;;;7.85;4.93;;;;;;;-1.58;91.25;97630.38;10598052;28;20051;-78
2023/03/08 22:56:58;;;;;;;8.70;5.47;;;;;;;-1.60;91.15;97627.16;10574888;28;20040;-79
2023/03/08 23:02:01;;;;;;;9.52;5.65;;;;;;;-1.59;91.43;97636.81;10605866;28;20043;-78
2023/03/08 23:07:03;;;;;;;11.50;5.95;;;;;;;-1.58;91.17;97635.75;10598680;28;20051;-78
2023/03/08 23:12:06;;;;;;;9.38;5.63;;;;;;;-1.62;91.33;97640.06;10575714;28;20056;-78
2023/03/08 23:17:08;;;;;;;8.90;5.68;;;;;;;-1.62;91.57;97641.94;10601964;28;20044;-78
2023/03/08 23:22:11;;;;;;;10.10;5.60;;;;;;;-1.65;91.50;97643.31;10573169;28;20139;-79
2023/03/08 23:27:13;;;;;;;9.55;5.65;;;;;;;-1.64;91.91;97650.28;10590306;27;20047;-77
2023/03/08 23:32:16;;;;;;;10.18;5.50;;;;;;;-1.66;91.81;97660.53;10635995;27;20043;-79
2023/03/08 23:37:18;;;;;;;9.70;6.05;;;;;;;-1.75;92.22;97648.72;10602598;28;20461;-78